sensor_id;sensor_type;location;lat;lon;timestamp;temperature;humidity
51811;DHT22;52468;40.116;18.296;2023-03-01T00:01:24;12.90;79.30
51811;DHT22;52468;40.116;18.296;2023-03-01T00:03:53;12.80;79.50
51811;DHT22;52468;40.116;18.296;2023-03-01T00:06:21;12.80;79.90
51811;DHT22;52468;40.116;18.296;2023-03-01T00:08:50;12.70;80.00
51811;DHT22;52468;40.116;18.296;2023-03-01T00:11:26;12.70;79.50
51811;DHT22;52468;40.116;18.296;2023-03-01T00:13:57;12.70;79.50
51811;DHT22;52468;40.116;18.296;2023-03-01T00:16:31;12.60;79.60
51811;DHT22;52468;40.116;18.296;2023-03-01T00:19:01;12.60;79.70
51811;DHT22;52468;40.116;18.296;2023-03-01T00:21:29;12.60;79.30
51811;DHT22;52468;40.116;18.296;2023-03-01T00:23:57;12.50;79.40
51811;DHT22;52468;40.116;18.296;2023-03-01T00:26:25;12.50;79.40
51811;DHT22;52468;40.116;18.296;2023-03-01T00:28:54;12.50;79.70
51811;DHT22;52468;40.116;18.296;2023-03-01T00:31:29;12.50;80.10
51811;DHT22;52468;40.116;18.296;2023-03-01T00:34:03;12.50;80.50
51811;DHT22;52468;40.116;18.296;2023-03-01T00:36:33;12.50;80.60
51811;DHT22;52468;40.116;18.296;2023-03-01T00:39:04;12.50;81.00
51811;DHT22;52468;40.116;18.296;2023-03-01T00:41:33;12.60;81.00
51811;DHT22;52468;40.116;18.296;2023-03-01T00:44:02;12.60;80.80
51811;DHT22;52468;40.116;18.296;2023-03-01T00:46:30;12.70;80.80
51811;DHT22;52468;40.116;18.296;2023-03-01T00:48:59;12.70;80.70
51811;DHT22;52468;40.116;18.296;2023-03-01T00:51:29;12.60;80.70
51811;DHT22;52468;40.116;18.296;2023-03-01T00:54:00;12.70;80.60
51811;DHT22;52468;40.116;18.296;2023-03-01T00:56:29;12.70;80.30
51811;DHT22;52468;40.116;18.296;2023-03-01T00:58:58;12.70;80.50
51811;DHT22;52468;40.116;18.296;2023-03-01T01:01:28;12.60;80.70
51811;DHT22;52468;40.116;18.296;2023-03-01T01:04:02;12.70;80.80
51811;DHT22;52468;40.116;18.296;2023-03-01T01:06:33;12.70;80.60
51811;DHT22;52468;40.116;18.296;2023-03-01T01:09:03;12.70;80.50
51811;DHT22;52468;40.116;18.296;2023-03-01T01:11:32;12.70;80.60
51811;DHT22;52468;40.116;18.296;2023-03-01T01:14:02;12.60;80.70
51811;DHT22;52468;40.116;18.296;2023-03-01T01:16:30;12.50;80.90
51811;DHT22;52468;40.116;18.296;2023-03-01T01:18:59;12.50;81.00
51811;DHT22;52468;40.116;18.296;2023-03-01T01:21:27;12.40;81.20
51811;DHT22;52468;40.116;18.296;2023-03-01T01:23:56;12.50;81.20
51811;DHT22;52468;40.116;18.296;2023-03-01T01:26:27;12.50;81.00
51811;DHT22;52468;40.116;18.296;2023-03-01T01:28:56;12.50;80.80
51811;DHT22;52468;40.116;18.296;2023-03-01T01:31:25;12.50;80.80
51811;DHT22;52468;40.116;18.296;2023-03-01T01:33:54;12.50;81.00
51811;DHT22;52468;40.116;18.296;2023-03-01T01:36:24;12.50;81.10
51811;DHT22;52468;40.116;18.296;2023-03-01T01:38:52;12.50;81.20
51811;DHT22;52468;40.116;18.296;2023-03-01T01:41:21;12.50;81.20
51811;DHT22;52468;40.116;18.296;2023-03-01T01:51:57;12.50;81.00
51811;DHT22;52468;40.116;18.296;2023-03-01T01:57:09;12.50;81.00
51811;DHT22;52468;40.116;18.296;2023-03-01T01:59:39;12.60;81.10
51811;DHT22;52468;40.116;18.296;2023-03-01T02:02:08;12.50;81.30
51811;DHT22;52468;40.116;18.296;2023-03-01T02:04:36;12.60;81.50
51811;DHT22;52468;40.116;18.296;2023-03-01T02:07:20;12.70;81.60
51811;DHT22;52468;40.116;18.296;2023-03-01T02:09:50;12.80;81.70
51811;DHT22;52468;40.116;18.296;2023-03-01T02:12:23;12.90;81.80
51811;DHT22;52468;40.116;18.296;2023-03-01T02:14:51;12.90;81.70
51811;DHT22;52468;40.116;18.296;2023-03-01T02:17:19;13.00;81.60
51811;DHT22;52468;40.116;18.296;2023-03-01T02:22:36;12.90;82.00
51811;DHT22;52468;40.116;18.296;2023-03-01T02:30:48;12.80;82.80
51811;DHT22;52468;40.116;18.296;2023-03-01T02:33:38;12.80;83.30
51811;DHT22;52468;40.116;18.296;2023-03-01T02:36:09;13.00;83.50
51811;DHT22;52468;40.116;18.296;2023-03-01T02:38:40;13.20;83.70
51811;DHT22;52468;40.116;18.296;2023-03-01T02:41:11;13.30;83.80
51811;DHT22;52468;40.116;18.296;2023-03-01T02:43:41;13.50;84.00
51811;DHT22;52468;40.116;18.296;2023-03-01T02:46:18;13.70;83.90
51811;DHT22;52468;40.116;18.296;2023-03-01T02:48:50;13.80;84.10
51811;DHT22;52468;40.116;18.296;2023-03-01T02:51:47;13.90;84.10
51811;DHT22;52468;40.116;18.296;2023-03-01T02:54:36;14.00;84.20
51811;DHT22;52468;40.116;18.296;2023-03-01T02:57:07;14.00;84.30
51811;DHT22;52468;40.116;18.296;2023-03-01T02:59:37;14.00;84.50
51811;DHT22;52468;40.116;18.296;2023-03-01T03:02:21;14.10;84.50
51811;DHT22;52468;40.116;18.296;2023-03-01T03:05:26;14.10;84.40
51811;DHT22;52468;40.116;18.296;2023-03-01T03:07:58;14.20;84.60
51811;DHT22;52468;40.116;18.296;2023-03-01T03:10:38;14.40;84.50
51811;DHT22;52468;40.116;18.296;2023-03-01T03:13:10;14.50;84.60
51811;DHT22;52468;40.116;18.296;2023-03-01T03:15:39;14.50;84.70
51811;DHT22;52468;40.116;18.296;2023-03-01T03:18:11;14.60;84.80
51811;DHT22;52468;40.116;18.296;2023-03-01T03:20:41;14.60;84.80
51811;DHT22;52468;40.116;18.296;2023-03-01T03:23:09;14.80;84.60
51811;DHT22;52468;40.116;18.296;2023-03-01T03:25:37;14.90;84.40
51811;DHT22;52468;40.116;18.296;2023-03-01T03:28:06;14.90;84.40
51811;DHT22;52468;40.116;18.296;2023-03-01T03:30:39;14.90;84.40
51811;DHT22;52468;40.116;18.296;2023-03-01T03:33:10;14.90;84.70
51811;DHT22;52468;40.116;18.296;2023-03-01T03:35:42;14.90;84.50
51811;DHT22;52468;40.116;18.296;2023-03-01T03:38:13;14.90;84.20
51811;DHT22;52468;40.116;18.296;2023-03-01T03:40:45;14.80;84.50
51811;DHT22;52468;40.116;18.296;2023-03-01T03:43:16;14.80;84.40
51811;DHT22;52468;40.116;18.296;2023-03-01T03:45:49;14.80;84.40
51811;DHT22;52468;40.116;18.296;2023-03-01T03:48:19;14.80;84.30
51811;DHT22;52468;40.116;18.296;2023-03-01T03:50:49;14.80;84.40
51811;DHT22;52468;40.116;18.296;2023-03-01T03:53:18;14.80;84.40
51811;DHT22;52468;40.116;18.296;2023-03-01T03:55:47;14.80;84.40
51811;DHT22;52468;40.116;18.296;2023-03-01T03:58:17;14.80;84.50
51811;DHT22;52468;40.116;18.296;2023-03-01T04:00:49;14.70;84.60
51811;DHT22;52468;40.116;18.296;2023-03-01T04:03:19;14.70;84.60
51811;DHT22;52468;40.116;18.296;2023-03-01T04:05:47;14.70;84.60
51811;DHT22;52468;40.116;18.296;2023-03-01T04:08:21;14.70;84.70
51811;DHT22;52468;40.116;18.296;2023-03-01T04:10:51;14.70;84.70
51811;DHT22;52468;40.116;18.296;2023-03-01T04:13:21;14.70;84.70
51811;DHT22;52468;40.116;18.296;2023-03-01T04:15:50;14.70;84.70
51811;DHT22;52468;40.116;18.296;2023-03-01T04:18:20;14.70;84.60
51811;DHT22;52468;40.116;18.296;2023-03-01T04:20:49;14.70;84.80
51811;DHT22;52468;40.116;18.296;2023-03-01T04:23:20;14.70;84.70
51811;DHT22;52468;40.116;18.296;2023-03-01T04:25:51;14.70;84.70
51811;DHT22;52468;40.116;18.296;2023-03-01T04:28:31;14.70;84.70
51811;DHT22;52468;40.116;18.296;2023-03-01T04:31:05;14.60;84.60
51811;DHT22;52468;40.116;18.296;2023-03-01T04:33:49;14.60;84.80
51811;DHT22;52468;40.116;18.296;2023-03-01T04:36:20;14.80;84.70
51811;DHT22;52468;40.116;18.296;2023-03-01T04:38:48;14.80;84.70
51811;DHT22;52468;40.116;18.296;2023-03-01T04:41:18;14.80;84.80
51811;DHT22;52468;40.116;18.296;2023-03-01T04:43:46;14.80;84.90
51811;DHT22;52468;40.116;18.296;2023-03-01T04:46:17;14.80;85.10
51811;DHT22;52468;40.116;18.296;2023-03-01T04:48:45;14.90;85.30
51811;DHT22;52468;40.116;18.296;2023-03-01T04:51:15;14.90;85.00
51811;DHT22;52468;40.116;18.296;2023-03-01T04:53:43;15.00;85.10
51811;DHT22;52468;40.116;18.296;2023-03-01T04:56:12;15.00;85.00
51811;DHT22;52468;40.116;18.296;2023-03-01T04:58:41;15.00;85.10
51811;DHT22;52468;40.116;18.296;2023-03-01T05:01:16;15.00;85.20
51811;DHT22;52468;40.116;18.296;2023-03-01T05:03:47;15.10;85.20
51811;DHT22;52468;40.116;18.296;2023-03-01T05:06:17;15.20;85.00
51811;DHT22;52468;40.116;18.296;2023-03-01T05:08:45;15.30;85.10
51811;DHT22;52468;40.116;18.296;2023-03-01T05:11:13;15.30;85.10
51811;DHT22;52468;40.116;18.296;2023-03-01T05:13:41;15.50;84.70
51811;DHT22;52468;40.116;18.296;2023-03-01T05:16:10;15.50;84.40
51811;DHT22;52468;40.116;18.296;2023-03-01T05:18:41;15.50;84.30
51811;DHT22;52468;40.116;18.296;2023-03-01T05:21:12;15.50;84.20
51811;DHT22;52468;40.116;18.296;2023-03-01T05:23:40;15.40;84.50
51811;DHT22;52468;40.116;18.296;2023-03-01T05:26:08;15.50;84.70
51811;DHT22;52468;40.116;18.296;2023-03-01T05:28:52;15.40;84.60
51811;DHT22;52468;40.116;18.296;2023-03-01T05:31:24;15.40;84.90
51811;DHT22;52468;40.116;18.296;2023-03-01T05:33:52;15.60;84.90
51811;DHT22;52468;40.116;18.296;2023-03-01T05:36:20;15.60;84.60
51811;DHT22;52468;40.116;18.296;2023-03-01T05:38:48;15.70;84.50
51811;DHT22;52468;40.116;18.296;2023-03-01T05:41:16;15.80;84.30
51811;DHT22;52468;40.116;18.296;2023-03-01T05:43:44;15.80;84.30
51811;DHT22;52468;40.116;18.296;2023-03-01T05:46:12;15.80;84.30
51811;DHT22;52468;40.116;18.296;2023-03-01T05:48:42;15.90;84.30
51811;DHT22;52468;40.116;18.296;2023-03-01T05:51:11;16.00;84.40
51811;DHT22;52468;40.116;18.296;2023-03-01T05:53:39;16.00;84.30
51811;DHT22;52468;40.116;18.296;2023-03-01T05:56:07;16.10;84.30
51811;DHT22;52468;40.116;18.296;2023-03-01T05:58:35;16.10;84.20
51811;DHT22;52468;40.116;18.296;2023-03-01T06:01:03;16.20;84.00
51811;DHT22;52468;40.116;18.296;2023-03-01T06:03:31;16.10;84.30
51811;DHT22;52468;40.116;18.296;2023-03-01T06:05:59;16.10;84.60
51811;DHT22;52468;40.116;18.296;2023-03-01T06:08:27;16.20;84.40
51811;DHT22;52468;40.116;18.296;2023-03-01T06:10:55;16.40;84.10
51811;DHT22;52468;40.116;18.296;2023-03-01T06:13:23;16.30;84.00
51811;DHT22;52468;40.116;18.296;2023-03-01T06:15:52;16.40;83.90
51811;DHT22;52468;40.116;18.296;2023-03-01T06:18:20;16.30;84.10
51811;DHT22;52468;40.116;18.296;2023-03-01T06:20:54;16.30;84.00
51811;DHT22;52468;40.116;18.296;2023-03-01T06:23:23;16.30;84.10
51811;DHT22;52468;40.116;18.296;2023-03-01T06:25:52;16.40;84.00
51811;DHT22;52468;40.116;18.296;2023-03-01T06:28:20;16.50;84.10
51811;DHT22;52468;40.116;18.296;2023-03-01T06:30:50;16.50;83.80
51811;DHT22;52468;40.116;18.296;2023-03-01T06:33:19;16.60;83.70
51811;DHT22;52468;40.116;18.296;2023-03-01T06:35:55;16.60;83.90
51811;DHT22;52468;40.116;18.296;2023-03-01T06:38:24;16.70;83.80
51811;DHT22;52468;40.116;18.296;2023-03-01T06:40:53;16.90;83.80
51811;DHT22;52468;40.116;18.296;2023-03-01T06:43:22;16.90;83.90
51811;DHT22;52468;40.116;18.296;2023-03-01T06:45:50;17.00;83.40
51811;DHT22;52468;40.116;18.296;2023-03-01T06:48:18;17.10;82.90
51811;DHT22;52468;40.116;18.296;2023-03-01T06:50:46;17.10;82.50
51811;DHT22;52468;40.116;18.296;2023-03-01T06:53:14;17.00;82.70
51811;DHT22;52468;40.116;18.296;2023-03-01T06:55:42;17.10;82.80
51811;DHT22;52468;40.116;18.296;2023-03-01T06:58:10;17.10;82.40
51811;DHT22;52468;40.116;18.296;2023-03-01T07:00:38;17.10;82.70
51811;DHT22;52468;40.116;18.296;2023-03-01T07:03:08;17.10;82.80
51811;DHT22;52468;40.116;18.296;2023-03-01T07:05:36;17.20;82.70
51811;DHT22;52468;40.116;18.296;2023-03-01T07:08:04;17.30;82.40
51811;DHT22;52468;40.116;18.296;2023-03-01T07:10:32;17.30;82.30
51811;DHT22;52468;40.116;18.296;2023-03-01T07:13:00;17.30;82.20
51811;DHT22;52468;40.116;18.296;2023-03-01T07:15:28;17.30;82.00
51811;DHT22;52468;40.116;18.296;2023-03-01T07:17:56;17.20;81.70
51811;DHT22;52468;40.116;18.296;2023-03-01T07:20:25;17.10;81.80
51811;DHT22;52468;40.116;18.296;2023-03-01T07:22:55;17.10;82.00
51811;DHT22;52468;40.116;18.296;2023-03-01T07:25:26;17.00;81.90
51811;DHT22;52468;40.116;18.296;2023-03-01T07:27:54;17.10;82.00
51811;DHT22;52468;40.116;18.296;2023-03-01T07:30:22;17.10;82.00
51811;DHT22;52468;40.116;18.296;2023-03-01T07:32:56;17.10;81.80
51811;DHT22;52468;40.116;18.296;2023-03-01T07:35:27;17.10;81.50
51811;DHT22;52468;40.116;18.296;2023-03-01T07:37:56;17.00;81.50
51811;DHT22;52468;40.116;18.296;2023-03-01T07:40:24;17.10;81.40
51811;DHT22;52468;40.116;18.296;2023-03-01T07:42:58;17.00;81.50
51811;DHT22;52468;40.116;18.296;2023-03-01T07:45:26;16.90;81.60
51811;DHT22;52468;40.116;18.296;2023-03-01T07:47:55;16.80;81.80
51811;DHT22;52468;40.116;18.296;2023-03-01T07:50:23;16.80;81.90
51811;DHT22;52468;40.116;18.296;2023-03-01T07:52:51;16.80;82.20
51811;DHT22;52468;40.116;18.296;2023-03-01T07:55:19;17.00;82.20
51811;DHT22;52468;40.116;18.296;2023-03-01T07:57:47;17.10;81.70
51811;DHT22;52468;40.116;18.296;2023-03-01T08:00:15;17.20;81.50
51811;DHT22;52468;40.116;18.296;2023-03-01T08:02:43;17.10;81.40
51811;DHT22;52468;40.116;18.296;2023-03-01T08:05:11;17.30;81.90
51811;DHT22;52468;40.116;18.296;2023-03-01T08:07:39;17.50;82.00
51811;DHT22;52468;40.116;18.296;2023-03-01T08:10:07;17.70;82.00
51811;DHT22;52468;40.116;18.296;2023-03-01T08:12:36;18.00;81.80
51811;DHT22;52468;40.116;18.296;2023-03-01T08:15:04;18.30;80.50
51811;DHT22;52468;40.116;18.296;2023-03-01T08:17:32;18.50;80.20
51811;DHT22;52468;40.116;18.296;2023-03-01T08:20:00;18.80;79.70
51811;DHT22;52468;40.116;18.296;2023-03-01T08:22:28;19.00;78.80
51811;DHT22;52468;40.116;18.296;2023-03-01T08:24:56;19.20;77.20
51811;DHT22;52468;40.116;18.296;2023-03-01T08:27:24;19.20;76.20
51811;DHT22;52468;40.116;18.296;2023-03-01T08:29:52;19.20;77.20
51811;DHT22;52468;40.116;18.296;2023-03-01T08:32:20;19.50;75.80
51811;DHT22;52468;40.116;18.296;2023-03-01T08:34:48;19.70;74.60
51811;DHT22;52468;40.116;18.296;2023-03-01T08:37:16;20.00;73.90
51811;DHT22;52468;40.116;18.296;2023-03-01T08:39:43;20.10;73.00
51811;DHT22;52468;40.116;18.296;2023-03-01T08:42:11;20.40;71.90
51811;DHT22;52468;40.116;18.296;2023-03-01T08:44:39;20.60;71.10
51811;DHT22;52468;40.116;18.296;2023-03-01T08:47:07;20.90;69.40
51811;DHT22;52468;40.116;18.296;2023-03-01T08:49:35;20.80;66.70
51811;DHT22;52468;40.116;18.296;2023-03-01T08:52:03;20.40;67.50
51811;DHT22;52468;40.116;18.296;2023-03-01T08:54:31;20.20;67.60
51811;DHT22;52468;40.116;18.296;2023-03-01T08:57:01;20.00;68.30
51811;DHT22;52468;40.116;18.296;2023-03-01T08:59:30;20.00;68.70
51811;DHT22;52468;40.116;18.296;2023-03-01T09:01:58;20.10;68.50
51811;DHT22;52468;40.116;18.296;2023-03-01T09:04:25;20.10;67.60
51811;DHT22;52468;40.116;18.296;2023-03-01T09:06:53;20.10;68.30
51811;DHT22;52468;40.116;18.296;2023-03-01T09:09:21;20.40;68.30
51811;DHT22;52468;40.116;18.296;2023-03-01T09:11:49;20.90;68.10
51811;DHT22;52468;40.116;18.296;2023-03-01T09:14:18;21.20;65.90
51811;DHT22;52468;40.116;18.296;2023-03-01T09:16:46;21.40;64.30
51811;DHT22;52468;40.116;18.296;2023-03-01T09:19:14;21.50;63.80
51811;DHT22;52468;40.116;18.296;2023-03-01T09:21:42;21.50;62.80
51811;DHT22;52468;40.116;18.296;2023-03-01T09:24:21;21.80;61.80
51811;DHT22;52468;40.116;18.296;2023-03-01T09:26:50;22.00;61.50
51811;DHT22;52468;40.116;18.296;2023-03-01T09:29:20;22.10;60.10
51811;DHT22;52468;40.116;18.296;2023-03-01T09:31:48;22.00;59.80
51811;DHT22;52468;40.116;18.296;2023-03-01T09:34:16;21.80;60.50
51811;DHT22;52468;40.116;18.296;2023-03-01T09:36:50;21.90;59.70
51811;DHT22;52468;40.116;18.296;2023-03-01T09:39:19;21.60;60.20
51811;DHT22;52468;40.116;18.296;2023-03-01T09:41:57;21.50;61.00
51811;DHT22;52468;40.116;18.296;2023-03-01T09:44:52;21.30;61.10
51811;DHT22;52468;40.116;18.296;2023-03-01T09:47:25;21.20;61.70
51811;DHT22;52468;40.116;18.296;2023-03-01T09:50:09;21.20;62.40
51811;DHT22;52468;40.116;18.296;2023-03-01T09:53:27;21.20;61.40
51811;DHT22;52468;40.116;18.296;2023-03-01T09:55:42;21.30;60.90
51811;DHT22;52468;40.116;18.296;2023-03-01T10:04:38;21.20;61.40
51811;DHT22;52468;40.116;18.296;2023-03-01T10:09:40;21.20;61.30
51811;DHT22;52468;40.116;18.296;2023-03-01T10:12:15;21.40;60.50
51811;DHT22;52468;40.116;18.296;2023-03-01T10:14:53;21.30;60.50
51811;DHT22;52468;40.116;18.296;2023-03-01T10:20:20;21.60;59.50
51811;DHT22;52468;40.116;18.296;2023-03-01T10:22:49;21.60;59.20
51811;DHT22;52468;40.116;18.296;2023-03-01T10:25:44;21.50;60.10
51811;DHT22;52468;40.116;18.296;2023-03-01T10:28:29;21.50;60.40
51811;DHT22;52468;40.116;18.296;2023-03-01T10:30:59;21.60;60.00
51811;DHT22;52468;40.116;18.296;2023-03-01T10:33:31;21.70;59.70
51811;DHT22;52468;40.116;18.296;2023-03-01T10:36:00;21.80;60.10
51811;DHT22;52468;40.116;18.296;2023-03-01T10:38:30;22.00;60.10
51811;DHT22;52468;40.116;18.296;2023-03-01T10:41:04;22.30;58.70
51811;DHT22;52468;40.116;18.296;2023-03-01T10:44:01;22.50;58.40
51811;DHT22;52468;40.116;18.296;2023-03-01T10:46:34;22.70;57.20
51811;DHT22;52468;40.116;18.296;2023-03-01T10:51:40;22.70;56.80
51811;DHT22;52468;40.116;18.296;2023-03-01T10:54:26;22.70;56.50
51811;DHT22;52468;40.116;18.296;2023-03-01T10:57:01;22.60;55.90
51811;DHT22;52468;40.116;18.296;2023-03-01T10:59:34;22.50;56.00
51811;DHT22;52468;40.116;18.296;2023-03-01T11:05:01;22.50;56.80
51811;DHT22;52468;40.116;18.296;2023-03-01T11:07:30;22.70;56.00
51811;DHT22;52468;40.116;18.296;2023-03-01T11:09:58;22.70;54.80
51811;DHT22;52468;40.116;18.296;2023-03-01T11:12:26;22.70;55.10
51811;DHT22;52468;40.116;18.296;2023-03-01T11:14:57;22.70;55.50
51811;DHT22;52468;40.116;18.296;2023-03-01T11:17:28;23.00;54.80
51811;DHT22;52468;40.116;18.296;2023-03-01T11:25:14;23.20;52.40
51811;DHT22;52468;40.116;18.296;2023-03-01T11:27:44;23.20;52.10
51811;DHT22;52468;40.116;18.296;2023-03-01T11:32:59;23.00;52.30
51811;DHT22;52468;40.116;18.296;2023-03-01T11:35:31;23.00;52.30
51811;DHT22;52468;40.116;18.296;2023-03-01T11:40:39;23.10;49.50
51811;DHT22;52468;40.116;18.296;2023-03-01T11:43:36;23.20;49.40
51811;DHT22;52468;40.116;18.296;2023-03-01T12:00:41;23.80;48.10
51811;DHT22;52468;40.116;18.296;2023-03-01T12:03:32;23.80;47.30
51811;DHT22;52468;40.116;18.296;2023-03-01T12:28:28;23.20;49.80
51811;DHT22;52468;40.116;18.296;2023-03-01T12:34:01;23.00;51.30
51811;DHT22;52468;40.116;18.296;2023-03-01T12:36:49;23.10;51.50
51811;DHT22;52468;40.116;18.296;2023-03-01T12:50:49;23.30;49.60
51811;DHT22;52468;40.116;18.296;2023-03-01T12:53:50;23.20;50.20
51811;DHT22;52468;40.116;18.296;2023-03-01T12:56:24;23.50;50.80
51811;DHT22;52468;40.116;18.296;2023-03-01T12:59:18;23.90;48.70
51811;DHT22;52468;40.116;18.296;2023-03-01T13:02:23;24.00;47.10
51811;DHT22;52468;40.116;18.296;2023-03-01T13:05:06;24.00;46.40
51811;DHT22;52468;40.116;18.296;2023-03-01T13:07:44;23.50;46.90
51811;DHT22;52468;40.116;18.296;2023-03-01T13:10:26;23.40;46.50
51811;DHT22;52468;40.116;18.296;2023-03-01T13:15:37;22.80;44.90
51811;DHT22;52468;40.116;18.296;2023-03-01T13:28:46;22.10;48.60
51811;DHT22;52468;40.116;18.296;2023-03-01T13:44:31;22.00;50.40
51811;DHT22;52468;40.116;18.296;2023-03-01T13:49:53;21.70;51.30
51811;DHT22;52468;40.116;18.296;2023-03-01T13:55:21;21.30;52.20
51811;DHT22;52468;40.116;18.296;2023-03-01T13:57:55;21.20;51.70
51811;DHT22;52468;40.116;18.296;2023-03-01T14:00:38;21.00;51.60
51811;DHT22;52468;40.116;18.296;2023-03-01T14:03:19;20.80;51.80
51811;DHT22;52468;40.116;18.296;2023-03-01T14:06:14;20.40;52.20
51811;DHT22;52468;40.116;18.296;2023-03-01T14:08:49;20.20;53.00
51811;DHT22;52468;40.116;18.296;2023-03-01T14:20:01;19.90;55.90
51811;DHT22;52468;40.116;18.296;2023-03-01T14:22:35;19.90;56.10
51811;DHT22;52468;40.116;18.296;2023-03-01T14:28:00;19.80;56.60
51811;DHT22;52468;40.116;18.296;2023-03-01T14:30:42;19.80;56.40
51811;DHT22;52468;40.116;18.296;2023-03-01T14:33:35;19.80;56.20
51811;DHT22;52468;40.116;18.296;2023-03-01T14:36:11;19.70;56.80
51811;DHT22;52468;40.116;18.296;2023-03-01T14:38:44;19.60;57.10
51811;DHT22;52468;40.116;18.296;2023-03-01T14:41:18;19.70;57.10
51811;DHT22;52468;40.116;18.296;2023-03-01T14:48:54;19.80;55.70
51811;DHT22;52468;40.116;18.296;2023-03-01T14:51:24;19.70;55.50
51811;DHT22;52468;40.116;18.296;2023-03-01T14:53:52;19.70;55.20
51811;DHT22;52468;40.116;18.296;2023-03-01T14:56:20;19.70;55.20
51811;DHT22;52468;40.116;18.296;2023-03-01T14:58:53;19.80;54.90
51811;DHT22;52468;40.116;18.296;2023-03-01T15:01:25;19.80;55.10
51811;DHT22;52468;40.116;18.296;2023-03-01T15:03:54;19.80;55.10
51811;DHT22;52468;40.116;18.296;2023-03-01T15:06:22;19.90;55.20
51811;DHT22;52468;40.116;18.296;2023-03-01T15:08:53;20.10;55.10
51811;DHT22;52468;40.116;18.296;2023-03-01T15:11:27;20.50;54.50
51811;DHT22;52468;40.116;18.296;2023-03-01T15:13:55;20.80;53.10
51811;DHT22;52468;40.116;18.296;2023-03-01T15:16:31;21.00;53.00
51811;DHT22;52468;40.116;18.296;2023-03-01T15:19:02;21.10;52.70
51811;DHT22;52468;40.116;18.296;2023-03-01T15:21:36;21.10;52.80
51811;DHT22;52468;40.116;18.296;2023-03-01T15:26:54;20.90;52.80
51811;DHT22;52468;40.116;18.296;2023-03-01T15:29:27;20.50;53.80
51811;DHT22;52468;40.116;18.296;2023-03-01T15:32:06;20.40;54.60
51811;DHT22;52468;40.116;18.296;2023-03-01T15:34:36;20.10;55.40
51811;DHT22;52468;40.116;18.296;2023-03-01T15:40:24;19.80;56.60
51811;DHT22;52468;40.116;18.296;2023-03-01T15:43:03;19.60;56.60
51811;DHT22;52468;40.116;18.296;2023-03-01T15:45:33;19.40;56.40
51811;DHT22;52468;40.116;18.296;2023-03-01T15:48:17;19.30;56.70
51811;DHT22;52468;40.116;18.296;2023-03-01T15:50:55;19.20;56.90
51811;DHT22;52468;40.116;18.296;2023-03-01T15:53:24;19.10;56.60
51811;DHT22;52468;40.116;18.296;2023-03-01T15:55:54;18.90;56.90
51811;DHT22;52468;40.116;18.296;2023-03-01T15:58:25;18.70;57.40
51811;DHT22;52468;40.116;18.296;2023-03-01T16:00:53;18.60;57.60
51811;DHT22;52468;40.116;18.296;2023-03-01T16:03:28;18.40;57.90
51811;DHT22;52468;40.116;18.296;2023-03-01T16:05:55;18.20;58.40
51811;DHT22;52468;40.116;18.296;2023-03-01T16:08:24;18.00;59.00
51811;DHT22;52468;40.116;18.296;2023-03-01T16:10:52;17.90;59.30
51811;DHT22;52468;40.116;18.296;2023-03-01T16:13:21;17.90;59.70
51811;DHT22;52468;40.116;18.296;2023-03-01T16:15:49;17.90;59.90
51811;DHT22;52468;40.116;18.296;2023-03-01T16:18:17;17.70;60.50
51811;DHT22;52468;40.116;18.296;2023-03-01T16:20:45;17.60;60.80
51811;DHT22;52468;40.116;18.296;2023-03-01T16:23:14;17.50;60.90
51811;DHT22;52468;40.116;18.296;2023-03-01T16:25:42;17.20;61.40
51811;DHT22;52468;40.116;18.296;2023-03-01T16:28:10;17.10;62.00
51811;DHT22;52468;40.116;18.296;2023-03-01T16:30:39;17.00;62.30
51811;DHT22;52468;40.116;18.296;2023-03-01T16:33:08;16.90;62.80
51811;DHT22;52468;40.116;18.296;2023-03-01T16:35:51;16.60;63.30
51811;DHT22;52468;40.116;18.296;2023-03-01T16:38:19;16.60;63.60
51811;DHT22;52468;40.116;18.296;2023-03-01T16:40:48;16.50;64.10
51811;DHT22;52468;40.116;18.296;2023-03-01T16:43:17;16.40;64.60
51811;DHT22;52468;40.116;18.296;2023-03-01T16:45:45;16.30;64.90
51811;DHT22;52468;40.116;18.296;2023-03-01T16:48:14;16.30;65.10
51811;DHT22;52468;40.116;18.296;2023-03-01T16:50:42;16.20;65.70
51811;DHT22;52468;40.116;18.296;2023-03-01T16:53:09;16.10;66.30
51811;DHT22;52468;40.116;18.296;2023-03-01T16:55:37;16.00;66.70
51811;DHT22;52468;40.116;18.296;2023-03-01T16:58:12;15.80;67.30
51811;DHT22;52468;40.116;18.296;2023-03-01T17:00:40;15.70;67.60
51811;DHT22;52468;40.116;18.296;2023-03-01T17:03:08;15.60;67.80
51811;DHT22;52468;40.116;18.296;2023-03-01T17:05:40;15.50;68.00
51811;DHT22;52468;40.116;18.296;2023-03-01T17:08:07;15.50;68.30
51811;DHT22;52468;40.116;18.296;2023-03-01T17:10:35;15.40;68.40
51811;DHT22;52468;40.116;18.296;2023-03-01T17:13:03;15.30;68.50
51811;DHT22;52468;40.116;18.296;2023-03-01T17:15:31;15.30;68.50
51811;DHT22;52468;40.116;18.296;2023-03-01T17:17:58;15.20;68.60
51811;DHT22;52468;40.116;18.296;2023-03-01T17:20:26;15.10;68.80
51811;DHT22;52468;40.116;18.296;2023-03-01T17:22:54;15.00;68.80
51811;DHT22;52468;40.116;18.296;2023-03-01T17:25:22;15.00;68.90
51811;DHT22;52468;40.116;18.296;2023-03-01T17:27:50;14.90;69.10
51811;DHT22;52468;40.116;18.296;2023-03-01T17:30:18;14.80;69.30
51811;DHT22;52468;40.116;18.296;2023-03-01T17:32:46;14.70;69.50
51811;DHT22;52468;40.116;18.296;2023-03-01T17:35:14;14.60;69.70
51811;DHT22;52468;40.116;18.296;2023-03-01T17:37:42;14.50;70.00
51811;DHT22;52468;40.116;18.296;2023-03-01T17:40:13;14.50;70.20
51811;DHT22;52468;40.116;18.296;2023-03-01T17:42:41;14.40;70.30
51811;DHT22;52468;40.116;18.296;2023-03-01T17:45:09;14.30;70.90
51811;DHT22;52468;40.116;18.296;2023-03-01T17:47:37;14.30;71.10
51811;DHT22;52468;40.116;18.296;2023-03-01T17:50:06;14.20;71.20
51811;DHT22;52468;40.116;18.296;2023-03-01T17:52:34;14.10;71.30
51811;DHT22;52468;40.116;18.296;2023-03-01T17:55:03;14.10;71.70
51811;DHT22;52468;40.116;18.296;2023-03-01T17:57:31;14.00;71.80
51811;DHT22;52468;40.116;18.296;2023-03-01T17:59:59;14.00;72.00
51811;DHT22;52468;40.116;18.296;2023-03-01T18:02:37;14.00;72.20
51811;DHT22;52468;40.116;18.296;2023-03-01T18:05:06;14.00;72.50
51811;DHT22;52468;40.116;18.296;2023-03-01T18:07:34;14.00;72.70
51811;DHT22;52468;40.116;18.296;2023-03-01T18:10:03;13.90;72.70
51811;DHT22;52468;40.116;18.296;2023-03-01T18:12:31;13.90;72.90
51811;DHT22;52468;40.116;18.296;2023-03-01T18:14:59;13.80;72.90